sensor_id;sensor_type;location;lat;lon;timestamp;pressure;altitude;pressure_sealevel;temperature;humidity
68193;BME280;55012;47.562;18.414;2023-05-02T00:01:59;99330.25;;;11.51;100.00
68193;BME280;55012;47.562;18.414;2023-05-02T00:04:25;99334.88;;;11.51;100.00
68193;BME280;55012;47.562;18.414;2023-05-02T00:06:51;99328.69;;;11.50;100.00
68193;BME280;55012;47.562;18.414;2023-05-02T00:09:17;99326.28;;;11.49;100.00
68193;BME280;55012;47.562;18.414;2023-05-02T00:11:43;99327.44;;;11.48;100.00
68193;BME280;55012;47.562;18.414;2023-05-02T00:14:08;99329.00;;;11.49;100.00
68193;BME280;55012;47.562;18.414;2023-05-02T00:16:34;99325.16;;;11.50;100.00
68193;BME280;55012;47.562;18.414;2023-05-02T00:18:59;99322.91;;;11.52;100.00
68193;BME280;55012;47.562;18.414;2023-05-02T00:21:25;99320.56;;;11.50;100.00
68193;BME280;55012;47.562;18.414;2023-05-02T00:23:54;99317.91;;;11.54;100.00
68193;BME280;55012;47.562;18.414;2023-05-02T00:26:21;99318.00;;;11.58;100.00
68193;BME280;55012;47.562;18.414;2023-05-02T00:28:47;99322.03;;;11.64;100.00
68193;BME280;55012;47.562;18.414;2023-05-02T00:31:12;99309.88;;;11.73;100.00
68193;BME280;55012;47.562;18.414;2023-05-02T00:33:38;99316.38;;;11.85;100.00
68193;BME280;55012;47.562;18.414;2023-05-02T00:36:03;99312.69;;;11.93;100.00
68193;BME280;55012;47.562;18.414;2023-05-02T00:38:29;99315.47;;;11.96;100.00
68193;BME280;55012;47.562;18.414;2023-05-02T00:40:54;99316.97;;;11.94;100.00
68193;BME280;55012;47.562;18.414;2023-05-02T00:43:20;99321.63;;;11.93;100.00
68193;BME280;55012;47.562;18.414;2023-05-02T00:45:45;99313.38;;;11.90;100.00
68193;BME280;55012;47.562;18.414;2023-05-02T00:48:12;99319.94;;;11.89;100.00
68193;BME280;55012;47.562;18.414;2023-05-02T00:50:39;99318.03;;;11.89;100.00
68193;BME280;55012;47.562;18.414;2023-05-02T00:53:07;99312.25;;;11.91;100.00
68193;BME280;55012;47.562;18.414;2023-05-02T00:55:34;99323.97;;;11.95;100.00
68193;BME280;55012;47.562;18.414;2023-05-02T00:58:02;99323.19;;;11.94;100.00
68193;BME280;55012;47.562;18.414;2023-05-02T01:11:48;99317.66;;;11.91;100.00
68193;BME280;55012;47.562;18.414;2023-05-02T01:14:17;99314.97;;;11.91;100.00
68193;BME280;55012;47.562;18.414;2023-05-02T01:16:45;99318.44;;;11.91;100.00
68193;BME280;55012;47.562;18.414;2023-05-02T01:19:21;99309.53;;;11.91;100.00
68193;BME280;55012;47.562;18.414;2023-05-02T01:21:50;99315.31;;;11.89;100.00
68193;BME280;55012;47.562;18.414;2023-05-02T01:24:31;99313.66;;;11.85;100.00
68193;BME280;55012;47.562;18.414;2023-05-02T01:30:01;99308.16;;;11.81;100.00
68193;BME280;55012;47.562;18.414;2023-05-02T01:32:28;99310.06;;;11.80;100.00
68193;BME280;55012;47.562;18.414;2023-05-02T01:34:56;99303.50;;;11.81;100.00
68193;BME280;55012;47.562;18.414;2023-05-02T01:37:23;99298.09;;;11.81;100.00
68193;BME280;55012;47.562;18.414;2023-05-02T01:39:51;99299.66;;;11.82;100.00
68193;BME280;55012;47.562;18.414;2023-05-02T01:42:19;99296.53;;;11.80;100.00
68193;BME280;55012;47.562;18.414;2023-05-02T01:44:46;99299.56;;;11.79;100.00
68193;BME280;55012;47.562;18.414;2023-05-02T01:47:14;99282.69;;;11.70;100.00
68193;BME280;55012;47.562;18.414;2023-05-02T01:49:39;99299.81;;;11.74;100.00
68193;BME280;55012;47.562;18.414;2023-05-02T01:52:10;99290.47;;;11.71;100.00
68193;BME280;55012;47.562;18.414;2023-05-02T01:54:36;99294.31;;;11.70;100.00
68193;BME280;55012;47.562;18.414;2023-05-02T01:57:05;99288.47;;;11.68;100.00
68193;BME280;55012;47.562;18.414;2023-05-02T01:59:33;99282.28;;;11.68;100.00
68193;BME280;55012;47.562;18.414;2023-05-02T02:02:01;99281.19;;;11.72;100.00
68193;BME280;55012;47.562;18.414;2023-05-02T02:04:28;99289.44;;;11.76;100.00
68193;BME280;55012;47.562;18.414;2023-05-02T02:07:01;99275.25;;;11.82;100.00
68193;BME280;55012;47.562;18.414;2023-05-02T02:09:29;99288.63;;;11.91;100.00
68193;BME280;55012;47.562;18.414;2023-05-02T02:12:22;99293.53;;;12.01;100.00
68193;BME280;55012;47.562;18.414;2023-05-02T02:15:16;99284.06;;;12.11;100.00
68193;BME280;55012;47.562;18.414;2023-05-02T02:17:46;99287.00;;;12.22;100.00
68193;BME280;55012;47.562;18.414;2023-05-02T02:20:14;99285.59;;;12.28;100.00
68193;BME280;55012;47.562;18.414;2023-05-02T02:22:42;99281.09;;;12.35;100.00
68193;BME280;55012;47.562;18.414;2023-05-02T02:25:14;99279.25;;;12.40;100.00
68193;BME280;55012;47.562;18.414;2023-05-02T02:27:40;99286.69;;;12.43;100.00
68193;BME280;55012;47.562;18.414;2023-05-02T02:30:07;99280.13;;;12.44;100.00
68193;BME280;55012;47.562;18.414;2023-05-02T02:32:33;99283.97;;;12.43;100.00
68193;BME280;55012;47.562;18.414;2023-05-02T02:34:59;99284.41;;;12.45;100.00
68193;BME280;55012;47.562;18.414;2023-05-02T02:37:30;99280.13;;;12.44;100.00
68193;BME280;55012;47.562;18.414;2023-05-02T02:42:36;99279.09;;;12.32;100.00
68193;BME280;55012;47.562;18.414;2023-05-02T02:50:42;99280.84;;;12.05;100.00
68193;BME280;55012;47.562;18.414;2023-05-02T02:53:17;99276.38;;;11.97;100.00
68193;BME280;55012;47.562;18.414;2023-05-02T02:55:51;99277.00;;;11.91;100.00
68193;BME280;55012;47.562;18.414;2023-05-02T03:01:26;99273.16;;;11.76;100.00
68193;BME280;55012;47.562;18.414;2023-05-02T03:03:53;99272.63;;;11.70;100.00
68193;BME280;55012;47.562;18.414;2023-05-02T03:06:19;99255.06;;;11.64;100.00
68193;BME280;55012;47.562;18.414;2023-05-02T03:08:45;99272.41;;;11.60;100.00
68193;BME280;55012;47.562;18.414;2023-05-02T03:11:11;99262.59;;;11.55;100.00
68193;BME280;55012;47.562;18.414;2023-05-02T03:13:36;99269.06;;;11.50;100.00
68193;BME280;55012;47.562;18.414;2023-05-02T03:18:43;99265.41;;;11.43;100.00
68193;BME280;55012;47.562;18.414;2023-05-02T03:21:08;99257.59;;;11.41;100.00
68193;BME280;55012;47.562;18.414;2023-05-02T03:23:34;99272.75;;;11.42;100.00
68193;BME280;55012;47.562;18.414;2023-05-02T03:26:00;99260.31;;;11.41;100.00
68193;BME280;55012;47.562;18.414;2023-05-02T03:28:27;99257.53;;;11.38;100.00
68193;BME280;55012;47.562;18.414;2023-05-02T03:30:52;99260.16;;;11.34;100.00
68193;BME280;55012;47.562;18.414;2023-05-02T03:33:18;99257.78;;;11.33;100.00
68193;BME280;55012;47.562;18.414;2023-05-02T03:35:44;99261.19;;;11.30;100.00
68193;BME280;55012;47.562;18.414;2023-05-02T03:38:10;99262.56;;;11.23;100.00
68193;BME280;55012;47.562;18.414;2023-05-02T03:40:35;99263.63;;;11.19;100.00
68193;BME280;55012;47.562;18.414;2023-05-02T03:43:01;99267.81;;;11.16;100.00
68193;BME280;55012;47.562;18.414;2023-05-02T03:45:26;99263.09;;;11.13;100.00
68193;BME280;55012;47.562;18.414;2023-05-02T03:47:52;99259.19;;;11.11;100.00
68193;BME280;55012;47.562;18.414;2023-05-02T03:50:17;99264.59;;;11.11;100.00
68193;BME280;55012;47.562;18.414;2023-05-02T03:52:43;99260.31;;;11.10;100.00
68193;BME280;55012;47.562;18.414;2023-05-02T03:55:08;99262.22;;;11.09;100.00
68193;BME280;55012;47.562;18.414;2023-05-02T03:57:34;99256.47;;;11.11;100.00
68193;BME280;55012;47.562;18.414;2023-05-02T04:00:00;99260.38;;;11.13;100.00
68193;BME280;55012;47.562;18.414;2023-05-02T04:02:25;99255.50;;;11.19;100.00
68193;BME280;55012;47.562;18.414;2023-05-02T04:04:51;99258.72;;;11.24;100.00
68193;BME280;55012;47.562;18.414;2023-05-02T04:07:16;99271.31;;;11.33;100.00
68193;BME280;55012;47.562;18.414;2023-05-02T04:09:44;99257.16;;;11.39;100.00
68193;BME280;55012;47.562;18.414;2023-05-02T04:12:09;99267.06;;;11.47;100.00
68193;BME280;55012;47.562;18.414;2023-05-02T04:14:35;99266.09;;;11.56;100.00
68193;BME280;55012;47.562;18.414;2023-05-02T04:17:00;99267.47;;;11.65;100.00
68193;BME280;55012;47.562;18.414;2023-05-02T04:19:26;99265.03;;;11.76;100.00
68193;BME280;55012;47.562;18.414;2023-05-02T04:21:51;99266.03;;;11.84;100.00
68193;BME280;55012;47.562;18.414;2023-05-02T04:24:17;99262.34;;;11.92;100.00
68193;BME280;55012;47.562;18.414;2023-05-02T04:26:43;99252.41;;;11.99;100.00
68193;BME280;55012;47.562;18.414;2023-05-02T04:29:08;99263.78;;;12.05;100.00
68193;BME280;55012;47.562;18.414;2023-05-02T04:31:34;99264.66;;;12.09;100.00
68193;BME280;55012;47.562;18.414;2023-05-02T04:33:59;99261.22;;;12.12;100.00
68193;BME280;55012;47.562;18.414;2023-05-02T04:36:25;99259.72;;;12.15;100.00
68193;BME280;55012;47.562;18.414;2023-05-02T04:38:52;99260.59;;;12.19;100.00
68193;BME280;55012;47.562;18.414;2023-05-02T04:41:18;99259.97;;;12.25;100.00
68193;BME280;55012;47.562;18.414;2023-05-02T04:43:43;99257.75;;;12.31;100.00
68193;BME280;55012;47.562;18.414;2023-05-02T04:46:09;99266.75;;;12.35;100.00
68193;BME280;55012;47.562;18.414;2023-05-02T04:48:35;99256.75;;;12.39;100.00
68193;BME280;55012;47.562;18.414;2023-05-02T04:51:01;99256.84;;;12.43;100.00
68193;BME280;55012;47.562;18.414;2023-05-02T04:53:26;99260.41;;;12.47;100.00
68193;BME280;55012;47.562;18.414;2023-05-02T04:55:52;99257.00;;;12.50;100.00
68193;BME280;55012;47.562;18.414;2023-05-02T04:58:18;99259.00;;;12.53;100.00
68193;BME280;55012;47.562;18.414;2023-05-02T05:00:43;99250.13;;;12.56;100.00
68193;BME280;55012;47.562;18.414;2023-05-02T05:03:09;99253.75;;;12.63;100.00
68193;BME280;55012;47.562;18.414;2023-05-02T05:05:34;99257.78;;;12.70;100.00
68193;BME280;55012;47.562;18.414;2023-05-02T05:08:00;99262.19;;;12.78;100.00
68193;BME280;55012;47.562;18.414;2023-05-02T05:10:25;99257.69;;;12.85;100.00
68193;BME280;55012;47.562;18.414;2023-05-02T05:12:51;99260.19;;;12.94;100.00
68193;BME280;55012;47.562;18.414;2023-05-02T05:15:17;99261.88;;;13.02;100.00
68193;BME280;55012;47.562;18.414;2023-05-02T05:17:46;99269.00;;;13.10;100.00
68193;BME280;55012;47.562;18.414;2023-05-02T05:20:11;99269.50;;;13.16;100.00
68193;BME280;55012;47.562;18.414;2023-05-02T05:22:41;99267.66;;;13.20;100.00
68193;BME280;55012;47.562;18.414;2023-05-02T05:25:10;99269.34;;;13.28;100.00
68193;BME280;55012;47.562;18.414;2023-05-02T05:27:36;99260.13;;;13.33;100.00
68193;BME280;55012;47.562;18.414;2023-05-02T05:30:03;99257.50;;;13.40;100.00
68193;BME280;55012;47.562;18.414;2023-05-02T05:32:28;99256.84;;;13.46;100.00
68193;BME280;55012;47.562;18.414;2023-05-02T05:34:54;99261.63;;;13.53;100.00
68193;BME280;55012;47.562;18.414;2023-05-02T05:37:20;99252.38;;;13.58;100.00
68193;BME280;55012;47.562;18.414;2023-05-02T05:39:46;99261.44;;;13.65;100.00
68193;BME280;55012;47.562;18.414;2023-05-02T05:42:12;99252.53;;;13.68;100.00
68193;BME280;55012;47.562;18.414;2023-05-02T05:44:38;99259.66;;;13.76;100.00
68193;BME280;55012;47.562;18.414;2023-05-02T05:47:04;99262.50;;;13.84;100.00
68193;BME280;55012;47.562;18.414;2023-05-02T05:49:29;99257.94;;;13.91;100.00
68193;BME280;55012;47.562;18.414;2023-05-02T05:51:55;99249.16;;;14.01;100.00
68193;BME280;55012;47.562;18.414;2023-05-02T05:54:21;99251.97;;;14.09;100.00
68193;BME280;55012;47.562;18.414;2023-05-02T05:56:47;99256.00;;;14.18;100.00
68193;BME280;55012;47.562;18.414;2023-05-02T05:59:13;99254.19;;;14.29;100.00
68193;BME280;55012;47.562;18.414;2023-05-02T06:01:39;99258.97;;;14.40;100.00
68193;BME280;55012;47.562;18.414;2023-05-02T06:04:04;99262.53;;;14.44;100.00
68193;BME280;55012;47.562;18.414;2023-05-02T06:06:31;99271.63;;;14.51;100.00
68193;BME280;55012;47.562;18.414;2023-05-02T06:08:57;99277.97;;;14.63;100.00
68193;BME280;55012;47.562;18.414;2023-05-02T06:11:23;99288.19;;;14.73;100.00
68193;BME280;55012;47.562;18.414;2023-05-02T06:13:51;99287.50;;;14.79;100.00
68193;BME280;55012;47.562;18.414;2023-05-02T06:16:17;99295.03;;;14.89;100.00
68193;BME280;55012;47.562;18.414;2023-05-02T06:18:46;99301.69;;;14.96;100.00
68193;BME280;55012;47.562;18.414;2023-05-02T06:21:12;99290.09;;;15.02;100.00
68193;BME280;55012;47.562;18.414;2023-05-02T06:23:37;99298.38;;;15.13;100.00
68193;BME280;55012;47.562;18.414;2023-05-02T06:26:04;99301.56;;;15.18;100.00
68193;BME280;55012;47.562;18.414;2023-05-02T06:28:30;99309.44;;;15.27;100.00
68193;BME280;55012;47.562;18.414;2023-05-02T06:31:00;99297.81;;;15.34;100.00
68193;BME280;55012;47.562;18.414;2023-05-02T06:33:29;99313.41;;;15.37;100.00
68193;BME280;55012;47.562;18.414;2023-05-02T06:35:55;99319.66;;;15.37;100.00
68193;BME280;55012;47.562;18.414;2023-05-02T06:38:21;99320.84;;;15.40;100.00
68193;BME280;55012;47.562;18.414;2023-05-02T06:40:47;99334.53;;;15.47;100.00
68193;BME280;55012;47.562;18.414;2023-05-02T06:43:12;99319.41;;;15.53;100.00
68193;BME280;55012;47.562;18.414;2023-05-02T06:45:39;99329.97;;;15.58;100.00
68193;BME280;55012;47.562;18.414;2023-05-02T06:48:05;99342.50;;;15.63;100.00
68193;BME280;55012;47.562;18.414;2023-05-02T06:50:31;99336.34;;;15.69;100.00
68193;BME280;55012;47.562;18.414;2023-05-02T06:52:57;99336.34;;;15.69;100.00
68193;BME280;55012;47.562;18.414;2023-05-02T06:55:22;99343.41;;;15.74;100.00
68193;BME280;55012;47.562;18.414;2023-05-02T06:57:48;99343.41;;;15.78;100.00
68193;BME280;55012;47.562;18.414;2023-05-02T07:00:15;99337.22;;;15.81;100.00
68193;BME280;55012;47.562;18.414;2023-05-02T07:02:41;99350.88;;;15.84;100.00
68193;BME280;55012;47.562;18.414;2023-05-02T07:05:07;99340.41;;;15.90;100.00
68193;BME280;55012;47.562;18.414;2023-05-02T07:07:33;99352.13;;;15.94;100.00
68193;BME280;55012;47.562;18.414;2023-05-02T07:09:58;99346.72;;;15.97;100.00
68193;BME280;55012;47.562;18.414;2023-05-02T07:12:25;99349.47;;;16.01;100.00
68193;BME280;55012;47.562;18.414;2023-05-02T07:14:51;99342.13;;;16.09;100.00
68193;BME280;55012;47.562;18.414;2023-05-02T07:17:16;99348.00;;;16.14;100.00
68193;BME280;55012;47.562;18.414;2023-05-02T07:19:42;99345.75;;;16.27;100.00
68193;BME280;55012;47.562;18.414;2023-05-02T07:22:07;99351.31;;;16.45;100.00
68193;BME280;55012;47.562;18.414;2023-05-02T07:24:33;99352.56;;;16.62;100.00
68193;BME280;55012;47.562;18.414;2023-05-02T07:26:58;99354.28;;;16.84;100.00
68193;BME280;55012;47.562;18.414;2023-05-02T07:29:24;99356.34;;;17.08;100.00
68193;BME280;55012;47.562;18.414;2023-05-02T07:31:49;99360.72;;;17.38;100.00
68193;BME280;55012;47.562;18.414;2023-05-02T07:34:15;99362.75;;;17.73;100.00
68193;BME280;55012;47.562;18.414;2023-05-02T07:36:41;99361.59;;;17.95;100.00
68193;BME280;55012;47.562;18.414;2023-05-02T07:39:06;99369.44;;;18.04;100.00
68193;BME280;55012;47.562;18.414;2023-05-02T07:41:32;99370.22;;;18.05;100.00
68193;BME280;55012;47.562;18.414;2023-05-02T07:43:58;99381.53;;;18.10;100.00
68193;BME280;55012;47.562;18.414;2023-05-02T07:46:23;99372.53;;;18.24;100.00
68193;BME280;55012;47.562;18.414;2023-05-02T07:48:49;99378.38;;;18.37;100.00
68193;BME280;55012;47.562;18.414;2023-05-02T07:51:15;99375.22;;;18.56;100.00
68193;BME280;55012;47.562;18.414;2023-05-02T07:53:41;99387.72;;;18.75;100.00
68193;BME280;55012;47.562;18.414;2023-05-02T07:56:07;99390.81;;;18.91;100.00
68193;BME280;55012;47.562;18.414;2023-05-02T07:58:35;99386.84;;;19.06;100.00
68193;BME280;55012;47.562;18.414;2023-05-02T08:01:01;99392.28;;;19.21;100.00
68193;BME280;55012;47.562;18.414;2023-05-02T08:03:28;99393.38;;;19.38;100.00
68193;BME280;55012;47.562;18.414;2023-05-02T08:05:54;99396.44;;;19.47;100.00
68193;BME280;55012;47.562;18.414;2023-05-02T08:08:19;99394.44;;;19.54;100.00
68193;BME280;55012;47.562;18.414;2023-05-02T08:10:45;99396.41;;;19.50;100.00
68193;BME280;55012;47.562;18.414;2023-05-02T08:13:16;99410.53;;;19.49;100.00
68193;BME280;55012;47.562;18.414;2023-05-02T08:15:41;99406.97;;;19.55;100.00
68193;BME280;55012;47.562;18.414;2023-05-02T08:18:07;99409.69;;;19.66;100.00
68193;BME280;55012;47.562;18.414;2023-05-02T08:20:32;99400.59;;;19.80;100.00
68193;BME280;55012;47.562;18.414;2023-05-02T08:22:58;99408.31;;;19.92;100.00
68193;BME280;55012;47.562;18.414;2023-05-02T08:25:23;99410.16;;;20.13;100.00
68193;BME280;55012;47.562;18.414;2023-05-02T08:27:48;99408.50;;;20.23;100.00
68193;BME280;55012;47.562;18.414;2023-05-02T08:30:14;99421.47;;;20.18;100.00
68193;BME280;55012;47.562;18.414;2023-05-02T08:32:39;99410.81;;;20.28;100.00
68193;BME280;55012;47.562;18.414;2023-05-02T08:35:05;99408.75;;;20.39;100.00
68193;BME280;55012;47.562;18.414;2023-05-02T08:37:31;99413.47;;;20.35;100.00
68193;BME280;55012;47.562;18.414;2023-05-02T08:39:56;99416.31;;;20.24;100.00
68193;BME280;55012;47.562;18.414;2023-05-02T08:42:22;99407.66;;;20.29;100.00
68193;BME280;55012;47.562;18.414;2023-05-02T08:44:49;99422.44;;;20.46;100.00
68193;BME280;55012;47.562;18.414;2023-05-02T08:47:14;99407.75;;;20.63;100.00
68193;BME280;55012;47.562;18.414;2023-05-02T08:49:41;99408.47;;;20.71;100.00
68193;BME280;55012;47.562;18.414;2023-05-02T08:52:08;99403.06;;;20.60;100.00
68193;BME280;55012;47.562;18.414;2023-05-02T08:54:37;99409.84;;;20.52;100.00
68193;BME280;55012;47.562;18.414;2023-05-02T08:57:03;99402.47;;;20.38;100.00
68193;BME280;55012;47.562;18.414;2023-05-02T08:59:30;99409.69;;;20.22;100.00
68193;BME280;55012;47.562;18.414;2023-05-02T09:02:04;99408.63;;;20.05;100.00
68193;BME280;55012;47.562;18.414;2023-05-02T09:04:33;99405.25;;;19.86;100.00
68193;BME280;55012;47.562;18.414;2023-05-02T09:07:00;99403.03;;;19.60;100.00
68193;BME280;55012;47.562;18.414;2023-05-02T09:09:26;99399.19;;;19.43;100.00
68193;BME280;55012;47.562;18.414;2023-05-02T09:11:53;99407.44;;;19.43;100.00
68193;BME280;55012;47.562;18.414;2023-05-02T09:14:18;99405.09;;;19.42;100.00
68193;BME280;55012;47.562;18.414;2023-05-02T09:16:44;99401.53;;;19.48;100.00
68193;BME280;55012;47.562;18.414;2023-05-02T09:19:10;99401.91;;;19.54;100.00
68193;BME280;55012;47.562;18.414;2023-05-02T09:21:39;99406.94;;;19.66;100.00
68193;BME280;55012;47.562;18.414;2023-05-02T09:24:16;99394.38;;;19.69;100.00
68193;BME280;55012;47.562;18.414;2023-05-02T09:26:43;99402.09;;;19.88;100.00
68193;BME280;55012;47.562;18.414;2023-05-02T09:29:20;99403.97;;;19.98;100.00
68193;BME280;55012;47.562;18.414;2023-05-02T09:31:46;99407.81;;;20.08;100.00
68193;BME280;55012;47.562;18.414;2023-05-02T09:34:15;99410.47;;;20.18;100.00
68193;BME280;55012;47.562;18.414;2023-05-02T09:36:43;99404.50;;;20.27;100.00
68193;BME280;55012;47.562;18.414;2023-05-02T09:39:14;99402.94;;;20.26;100.00
68193;BME280;55012;47.562;18.414;2023-05-02T09:41:44;99409.25;;;20.23;100.00
68193;BME280;55012;47.562;18.414;2023-05-02T09:44:12;99402.94;;;20.26;100.00
68193;BME280;55012;47.562;18.414;2023-05-02T09:46:42;99409.69;;;20.22;100.00
68193;BME280;55012;47.562;18.414;2023-05-02T09:49:07;99415.59;;;20.20;100.00
68193;BME280;55012;47.562;18.414;2023-05-02T09:51:34;99409.22;;;20.27;100.00
68193;BME280;55012;47.562;18.414;2023-05-02T09:54:00;99399.66;;;20.42;100.00
68193;BME280;55012;47.562;18.414;2023-05-02T09:56:25;99405.78;;;20.64;100.00
68193;BME280;55012;47.562;18.414;2023-05-02T09:58:51;99399.25;;;20.85;100.00
68193;BME280;55012;47.562;18.414;2023-05-02T10:01:35;99399.47;;;21.01;100.00
68193;BME280;55012;47.562;18.414;2023-05-02T10:04:02;99397.28;;;21.19;100.00
68193;BME280;55012;47.562;18.414;2023-05-02T10:06:28;99396.34;;;21.33;100.00
68193;BME280;55012;47.562;18.414;2023-05-02T10:08:55;99393.81;;;21.46;100.00
68193;BME280;55012;47.562;18.414;2023-05-02T10:11:21;99392.53;;;21.54;100.00
68193;BME280;55012;47.562;18.414;2023-05-02T10:13:47;99387.97;;;21.71;100.00
68193;BME280;55012;47.562;18.414;2023-05-02T10:16:15;99390.78;;;21.91;100.00
68193;BME280;55012;47.562;18.414;2023-05-02T10:19:06;99386.28;;;22.04;100.00
68193;BME280;55012;47.562;18.414;2023-05-02T10:21:32;99381.63;;;22.24;100.00
68193;BME280;55012;47.562;18.414;2023-05-02T10:23:59;99380.66;;;22.34;100.00
68193;BME280;55012;47.562;18.414;2023-05-02T10:26:27;99376.31;;;22.57;100.00
68193;BME280;55012;47.562;18.414;2023-05-02T10:28:54;99375.91;;;22.78;100.00
68193;BME280;55012;47.562;18.414;2023-05-02T10:31:20;99384.94;;;23.02;100.00
68193;BME280;55012;47.562;18.414;2023-05-02T10:33:49;99371.09;;;23.22;100.00
68193;BME280;55012;47.562;18.414;2023-05-02T10:36:20;99370.66;;;23.43;100.00
68193;BME280;55012;47.562;18.414;2023-05-02T10:38:47;99366.63;;;23.64;100.00
68193;BME280;55012;47.562;18.414;2023-05-02T10:43:38;99362.84;;;24.07;100.00
68193;BME280;55012;47.562;18.414;2023-05-02T10:46:30;99368.44;;;24.20;100.00
68193;BME280;55012;47.562;18.414;2023-05-02T10:49:07;99363.59;;;24.24;100.00
68193;BME280;55012;47.562;18.414;2023-05-02T10:51:34;99372.25;;;24.42;100.00
68193;BME280;55012;47.562;18.414;2023-05-02T10:54:18;99365.91;;;24.58;100.00
68193;BME280;55012;47.562;18.414;2023-05-02T11:02:02;99363.19;;;24.42;100.00
68193;BME280;55012;47.562;18.414;2023-05-02T11:05:00;99364.22;;;24.15;100.00
68193;BME280;55012;47.562;18.414;2023-05-02T11:07:27;99357.75;;;23.89;100.00
68193;BME280;55012;47.562;18.414;2023-05-02T11:09:52;99356.63;;;23.70;100.00
68193;BME280;55012;47.562;18.414;2023-05-02T11:12:48;99357.88;;;23.49;100.00
68193;BME280;55012;47.562;18.414;2023-05-02T11:18:11;99353.25;;;23.63;100.00
68193;BME280;55012;47.562;18.414;2023-05-02T11:20:41;99358.19;;;23.71;100.00
68193;BME280;55012;47.562;18.414;2023-05-02T11:25:46;99356.91;;;23.76;100.00
68193;BME280;55012;47.562;18.414;2023-05-02T11:28:41;99355.00;;;23.89;100.00
68193;BME280;55012;47.562;18.414;2023-05-02T11:34:02;99349.44;;;24.22;100.00
68193;BME280;55012;47.562;18.414;2023-05-02T11:38:54;99350.03;;;24.46;100.00
68193;BME280;55012;47.562;18.414;2023-05-02T11:41:20;99361.41;;;24.48;100.00
68193;BME280;55012;47.562;18.414;2023-05-02T11:43:45;99344.97;;;24.57;100.00
68193;BME280;55012;47.562;18.414;2023-05-02T11:46:11;99353.38;;;24.53;100.00
68193;BME280;55012;47.562;18.414;2023-05-02T11:48:37;99357.53;;;24.45;100.00
68193;BME280;55012;47.562;18.414;2023-05-02T11:51:02;99358.03;;;24.56;100.00
68193;BME280;55012;47.562;18.414;2023-05-02T11:53:29;99347.03;;;24.82;100.00
68193;BME280;55012;47.562;18.414;2023-05-02T11:55:57;99348.47;;;25.15;100.00
68193;BME280;55012;47.562;18.414;2023-05-02T11:58:26;99341.19;;;25.47;100.00
68193;BME280;55012;47.562;18.414;2023-05-02T12:00:56;99344.75;;;25.73;100.00
68193;BME280;55012;47.562;18.414;2023-05-02T12:05:48;99327.72;;;26.44;100.00
68193;BME280;55012;47.562;18.414;2023-05-02T12:08:25;99339.34;;;26.51;100.00
68193;BME280;55012;47.562;18.414;2023-05-02T12:10:52;99329.50;;;26.50;100.00
68193;BME280;55012;47.562;18.414;2023-05-02T12:13:20;99333.31;;;26.66;100.00
68193;BME280;55012;47.562;18.414;2023-05-02T12:15:46;99338.59;;;26.51;100.00
68193;BME280;55012;47.562;18.414;2023-05-02T12:18:13;99319.63;;;26.49;100.00
68193;BME280;55012;47.562;18.414;2023-05-02T12:20:38;99328.09;;;26.33;100.00
68193;BME280;55012;47.562;18.414;2023-05-02T12:23:05;99321.88;;;26.42;100.00
68193;BME280;55012;47.562;18.414;2023-05-02T12:25:36;99318.75;;;26.40;100.00
68193;BME280;55012;47.562;18.414;2023-05-02T12:28:03;99330.09;;;26.32;100.00
68193;BME280;55012;47.562;18.414;2023-05-02T12:30:29;99330.69;;;26.15;100.00
68193;BME280;55012;47.562;18.414;2023-05-02T12:32:56;99325.81;;;26.06;100.00
68193;BME280;55012;47.562;18.414;2023-05-02T12:35:22;99322.50;;;26.11;100.00
68193;BME280;55012;47.562;18.414;2023-05-02T12:37:48;99319.72;;;26.11;100.00
68193;BME280;55012;47.562;18.414;2023-05-02T12:40:14;99321.03;;;26.19;100.00
68193;BME280;55012;47.562;18.414;2023-05-02T12:42:41;99310.63;;;26.11;100.00
68193;BME280;55012;47.562;18.414;2023-05-02T12:45:15;99310.31;;;26.09;100.00
68193;BME280;55012;47.562;18.414;2023-05-02T12:47:44;99316.09;;;26.01;100.00
68193;BME280;55012;47.562;18.414;2023-05-02T12:50:12;99317.56;;;25.81;99.82
68193;BME280;55012;47.562;18.414;2023-05-02T12:52:51;99321.25;;;25.52;100.00
68193;BME280;55012;47.562;18.414;2023-05-02T12:55:24;99320.81;;;25.41;100.00
68193;BME280;55012;47.562;18.414;2023-05-02T12:58:02;99317.25;;;25.28;100.00
68193;BME280;55012;47.562;18.414;2023-05-02T13:00:28;99325.91;;;25.30;100.00
68193;BME280;55012;47.562;18.414;2023-05-02T13:02:54;99312.59;;;25.37;100.00
68193;BME280;55012;47.562;18.414;2023-05-02T13:05:20;99313.16;;;25.45;100.00
68193;BME280;55012;47.562;18.414;2023-05-02T13:07:46;99304.31;;;25.50;100.00
68193;BME280;55012;47.562;18.414;2023-05-02T13:10:11;99305.41;;;25.53;100.00
68193;BME280;55012;47.562;18.414;2023-05-02T13:12:37;99311.25;;;25.67;100.00
68193;BME280;55012;47.562;18.414;2023-05-02T13:15:04;99296.63;;;25.80;100.00
68193;BME280;55012;47.562;18.414;2023-05-02T13:17:31;99301.94;;;25.87;100.00
68193;BME280;55012;47.562;18.414;2023-05-02T13:19:57;99303.41;;;25.79;100.00
68193;BME280;55012;47.562;18.414;2023-05-02T13:22:23;99300.63;;;25.79;100.00
68193;BME280;55012;47.562;18.414;2023-05-02T13:24:48;99298.16;;;25.81;100.00
68193;BME280;55012;47.562;18.414;2023-05-02T13:27:14;99300.03;;;25.96;100.00
68193;BME280;55012;47.562;18.414;2023-05-02T13:29:43;99296.38;;;26.21;100.00
68193;BME280;55012;47.562;18.414;2023-05-02T13:32:08;99305.25;;;26.29;100.00